createdAt,value
2023-03-25T08:24:34.315Z,98336.09
2023-03-25T08:27:15.477Z,98324.00
2023-03-25T08:55:12.620Z,98336.91
2023-03-25T08:57:40.080Z,98331.63
2023-03-25T09:00:16.945Z,98334.22
2023-03-25T09:02:44.909Z,98345.59
2023-03-25T09:08:24.937Z,98317.13
2023-03-25T09:10:54.621Z,98323.44
2023-03-25T09:13:22.021Z,98326.56
2023-03-25T09:15:49.606Z,98323.44
2023-03-25T09:18:17.209Z,98328.59
2023-03-25T09:25:35.574Z,98327.06
2023-03-25T09:28:03.890Z,98346.13
2023-03-25T09:30:31.335Z,98329.81
2023-03-25T09:32:58.899Z,98360.25
2023-03-25T09:35:26.392Z,98366.22
2023-03-25T09:39:10.131Z,98364.44
2023-03-25T09:42:45.755Z,98407.81
2023-03-25T09:45:49.890Z,98405.00
2023-03-25T09:48:36.722Z,98389.56
2023-03-25T09:51:25.637Z,98410.47
2023-03-25T09:54:34.052Z,98407.00
2023-03-25T09:57:13.879Z,98409.69
2023-03-25T09:59:49.181Z,98406.44
2023-03-25T10:03:02.717Z,98402.22
2023-03-25T10:06:12.290Z,98395.41
2023-03-25T10:09:04.834Z,98409.31
2023-03-25T10:12:11.601Z,98412.28
2023-03-25T10:15:30.689Z,98410.44
2023-03-25T10:18:49.886Z,98377.53
2023-03-25T10:21:50.631Z,98373.81
2023-03-25T10:24:34.531Z,98384.44
2023-03-25T10:27:34.498Z,98394.19
2023-03-25T10:30:27.277Z,98387.31
2023-03-25T10:33:06.855Z,98388.19
2023-03-25T10:35:43.178Z,98381.31
2023-03-25T10:38:20.969Z,98387.81
2023-03-25T10:41:37.423Z,98399.59
2023-03-25T10:44:12.854Z,98392.28
2023-03-25T10:46:52.262Z,98385.97
2023-03-25T10:49:27.421Z,98397.53
2023-03-25T10:51:57.655Z,98388.34
2023-03-25T10:54:33.521Z,98374.81
2023-03-25T10:57:08.122Z,98379.41
2023-03-25T10:59:52.643Z,98376.53
2023-03-25T11:02:26.087Z,98377.25
2023-03-25T11:05:05.160Z,98379.88
2023-03-25T11:07:50.773Z,98363.75
2023-03-25T11:10:23.980Z,98371.56
2023-03-25T11:12:54.695Z,98357.56
2023-03-25T11:15:30.733Z,98355.31
2023-03-25T11:18:24.855Z,98354.41
2023-03-25T11:21:15.603Z,98366.59
2023-03-25T11:23:52.447Z,98356.06
2023-03-25T11:26:36.432Z,98359.94
2023-03-25T11:29:19.650Z,98368.97
2023-03-25T11:32:13.079Z,98367.81
2023-03-25T11:34:43.740Z,98352.91
2023-03-25T11:37:22.639Z,98365.72
2023-03-25T11:39:56.048Z,98359.47
2023-03-25T11:42:42.829Z,98364.78
2023-03-25T11:45:39.243Z,98348.75
2023-03-25T11:48:29.838Z,98352.78
2023-03-25T11:51:03.074Z,98349.03
2023-03-25T11:53:33.630Z,98338.19
2023-03-25T11:56:11.850Z,98348.13
2023-03-25T11:58:40.800Z,98353.19
2023-03-25T12:01:46.124Z,98357.78
2023-03-25T12:04:32.531Z,98334.38
2023-03-25T12:07:15.400Z,98327.75
2023-03-25T12:10:04.769Z,98326.59
2023-03-25T12:14:06.652Z,98323.72
2023-03-25T12:17:28.730Z,98328.75
2023-03-25T12:20:39.776Z,98322.47
2023-03-25T12:23:56.956Z,98330.88
2023-03-25T12:27:16.590Z,98332.13
2023-03-25T12:30:38.461Z,98309.00
2023-03-25T12:33:48.685Z,98304.78
2023-03-25T12:36:42.881Z,98305.19
2023-03-25T12:40:11.385Z,98307.53
2023-03-25T12:43:10.952Z,98300.84
2023-03-25T12:46:15.792Z,98305.53
2023-03-25T12:49:44.537Z,98287.75
2023-03-25T12:52:33.657Z,98301.19
2023-03-25T12:55:36.940Z,98325.78
2023-03-25T12:58:56.330Z,98314.69
2023-03-25T13:02:15.776Z,98328.47
2023-03-25T13:06:02.223Z,98312.66
2023-03-25T13:09:05.308Z,98317.81
2023-03-25T13:11:59.655Z,98309.91
2023-03-25T13:14:44.883Z,98313.38
2023-03-25T13:17:32.047Z,98302.66
2023-03-25T13:20:06.524Z,98319.22
2023-03-25T13:22:44.990Z,98300.81
2023-03-25T13:25:33.685Z,98299.22
2023-03-25T13:28:10.334Z,98312.34
2023-03-25T13:30:46.891Z,98276.84
2023-03-25T13:33:25.620Z,98311.56
2023-03-25T13:36:34.396Z,98308.56
2023-03-25T13:39:24.748Z,98296.09
2023-03-25T13:42:13.521Z,98313.59
2023-03-25T13:44:47.086Z,98298.53
2023-03-25T13:47:40.140Z,98296.84
2023-03-25T13:50:32.084Z,98292.69
2023-03-25T13:53:51.926Z,98300.28
2023-03-25T13:57:25.976Z,98286.41
2023-03-25T14:00:34.592Z,98283.09
2023-03-25T14:04:13.374Z,98274.97
2023-03-25T14:07:46.473Z,98276.78
2023-03-25T14:11:18.415Z,98278.22
2023-03-25T14:14:01.765Z,98288.28
2023-03-25T14:16:43.150Z,98292.00
2023-03-25T14:19:32.527Z,98300.28
2023-03-25T14:22:06.561Z,98311.94
2023-03-25T14:24:41.629Z,98314.41
2023-03-25T14:27:34.903Z,98340.78
2023-03-25T14:30:28.724Z,98344.06
2023-03-25T14:32:56.995Z,98322.03
2023-03-25T14:35:33.802Z,98322.38
2023-03-25T14:38:09.908Z,98328.56
2023-03-25T14:40:50.726Z,98331.25
2023-03-25T14:43:47.744Z,98343.19
2023-03-25T14:46:24.363Z,98333.53
2023-03-25T14:49:23.026Z,98334.34
2023-03-25T14:51:56.936Z,98329.28
2023-03-25T14:54:34.753Z,98331.19
2023-03-25T14:57:33.068Z,98331.09
2023-03-25T15:00:13.893Z,98323.88
2023-03-25T15:02:44.238Z,98329.28
2023-03-25T15:05:24.694Z,98316.22
2023-03-25T15:08:00.216Z,98320.56
2023-03-25T15:10:38.219Z,98307.97
2023-03-25T15:13:33.317Z,98317.47
2023-03-25T15:16:38.323Z,98311.53
2023-03-25T15:19:14.559Z,98318.28
2023-03-25T15:22:01.168Z,98304.75
2023-03-25T15:24:43.748Z,98313.13
2023-03-25T15:28:05.095Z,98306.38
2023-03-25T15:31:32.043Z,98289.22
2023-03-25T15:35:00.298Z,98320.19
2023-03-25T15:38:17.742Z,98293.28
2023-03-25T15:42:04.210Z,98296.06
2023-03-25T15:45:08.100Z,98292.88
2023-03-25T15:48:27.494Z,98287.75
2023-03-25T15:51:38.617Z,98295.63
2023-03-25T15:54:44.251Z,98290.47
2023-03-25T15:58:03.564Z,98294.09
2023-03-25T16:00:44.960Z,98295.69
2023-03-25T16:03:29.243Z,98295.66
2023-03-25T16:06:05.843Z,98288.50
2023-03-25T16:08:40.784Z,98279.41
2023-03-25T16:11:35.626Z,98284.16
2023-03-25T16:14:17.459Z,98282.59
2023-03-25T16:17:00.095Z,98274.91
2023-03-25T16:19:49.603Z,98278.63
2023-03-25T16:22:28.935Z,98285.75
2023-03-25T16:25:27.134Z,98278.19
2023-03-25T16:28:01.565Z,98269.09
2023-03-25T16:30:43.127Z,98266.69
2023-03-25T16:33:10.686Z,98279.00
2023-03-25T16:35:59.060Z,98286.13
2023-03-25T16:38:27.697Z,98276.59
2023-03-25T16:41:14.885Z,98277.69
2023-03-25T16:43:43.471Z,98277.28
2023-03-25T16:46:15.195Z,98271.47
2023-03-25T16:48:53.563Z,98283.78
2023-03-25T16:51:36.091Z,98275.06
2023-03-25T16:54:22.198Z,98265.53
2023-03-25T16:56:50.208Z,98259.00
2023-03-25T16:59:36.799Z,98257.63
2023-03-25T17:02:28.355Z,98250.09
2023-03-25T17:05:19.026Z,98252.75
2023-03-25T17:08:08.662Z,98250.06
2023-03-25T17:10:55.278Z,98253.28
2023-03-25T17:13:44.695Z,98246.13
2023-03-25T17:16:13.198Z,98246.44
2023-03-25T17:18:40.821Z,98235.81
2023-03-25T17:21:20.020Z,98238.50
2023-03-25T17:23:47.854Z,98244.84
2023-03-25T17:26:21.165Z,98250.41
2023-03-25T17:28:51.529Z,98252.72
2023-03-25T17:31:34.701Z,98259.03
2023-03-25T17:34:12.856Z,98259.69
2023-03-25T17:36:47.138Z,98269.72
2023-03-25T17:39:27.957Z,98256.53
2023-03-25T17:42:06.777Z,98265.94
2023-03-25T17:44:43.523Z,98271.47
2023-03-25T17:47:19.127Z,98273.56
2023-03-25T17:49:46.768Z,98282.50
2023-03-25T17:52:14.149Z,98287.03
2023-03-25T17:54:41.585Z,98303.22
2023-03-25T17:57:19.765Z,98301.47
2023-03-25T17:59:47.824Z,98301.50
2023-03-25T18:02:17.425Z,98301.13
2023-03-25T18:04:44.866Z,98296.66
2023-03-25T18:07:12.467Z,98301.25
2023-03-25T18:09:41.323Z,98300.28
2023-03-25T18:12:10.383Z,98303.25
2023-03-25T18:14:37.803Z,98309.09
2023-03-25T18:17:05.303Z,98312.03
2023-03-25T18:19:34.099Z,98317.19
2023-03-25T18:22:10.005Z,98316.53
2023-03-25T18:24:46.570Z,98313.25
2023-03-25T18:27:14.696Z,98317.56
2023-03-25T18:29:42.206Z,98319.13
2023-03-25T18:32:09.808Z,98321.81
2023-03-25T18:34:37.255Z,98327.94
2023-03-25T18:37:04.730Z,98324.38
2023-03-25T18:39:32.786Z,98315.41
2023-03-25T18:42:00.310Z,98325.38
2023-03-25T18:44:28.632Z,98329.22
2023-03-25T18:46:56.405Z,98331.84
2023-03-25T18:49:23.858Z,98328.72
2023-03-25T18:51:51.469Z,98337.19
2023-03-25T18:54:19.547Z,98343.84
2023-03-25T18:56:47.441Z,98342.22
2023-03-25T18:59:21.979Z,98343.66
2023-03-25T19:01:49.827Z,98339.72
2023-03-25T19:04:18.301Z,98350.84
2023-03-25T19:06:45.732Z,98340.38
2023-03-25T19:09:22.868Z,98354.03
2023-03-25T19:11:51.296Z,98352.63
2023-03-25T19:14:18.913Z,98364.66
2023-03-25T19:16:57.252Z,98362.41
2023-03-25T19:19:28.960Z,98363.28
2023-03-25T19:21:56.414Z,98369.09
2023-03-25T19:24:49.503Z,98370.44
2023-03-25T19:27:28.633Z,98352.91
2023-03-25T19:29:56.237Z,98361.22
2023-03-25T19:32:23.838Z,98369.63
2023-03-25T19:35:03.051Z,98369.78
2023-03-25T19:37:35.376Z,98367.75
2023-03-25T19:40:09.386Z,98369.41
2023-03-25T19:42:38.677Z,98368.53
2023-03-25T19:45:10.740Z,98366.34
2023-03-25T19:47:42.219Z,98370.50
2023-03-25T19:50:19.104Z,98355.88
2023-03-25T19:52:49.944Z,98353.75
2023-03-25T19:55:18.421Z,98359.38
2023-03-25T19:57:47.528Z,98360.72
2023-03-25T20:00:26.192Z,98354.38
2023-03-25T20:03:02.226Z,98355.97
2023-03-25T20:05:33.839Z,98349.03
2023-03-25T20:08:01.781Z,98359.56
2023-03-25T20:10:30.541Z,98349.38
2023-03-25T20:13:00.268Z,98361.19
2023-03-25T20:15:27.777Z,98354.06
2023-03-25T20:17:56.213Z,98356.31
2023-03-25T20:20:25.036Z,98366.00
2023-03-25T20:22:53.261Z,98350.47
2023-03-25T20:25:21.405Z,98353.84
2023-03-25T20:27:48.999Z,98355.84
2023-03-25T20:30:19.949Z,98349.94
2023-03-25T20:32:48.793Z,98351.25
2023-03-25T20:35:19.066Z,98347.16
2023-03-25T20:37:49.149Z,98342.28
2023-03-25T20:40:19.784Z,98340.75
2023-03-25T20:42:49.660Z,98336.31
2023-03-25T20:45:18.752Z,98339.56
2023-03-25T20:47:46.510Z,98330.72
2023-03-25T20:50:16.590Z,98321.44
2023-03-25T20:52:44.982Z,98327.25
2023-03-25T20:55:13.025Z,98333.59
2023-03-25T20:57:41.493Z,98319.56
2023-03-25T21:00:18.174Z,98313.91
2023-03-25T21:02:46.310Z,98319.78
2023-03-25T21:05:13.860Z,98312.56
2023-03-25T21:07:41.773Z,98308.88
2023-03-25T21:10:10.444Z,98309.84
2023-03-25T21:12:44.006Z,98307.03
2023-03-25T21:15:17.073Z,98301.13
2023-03-25T21:17:44.573Z,98302.91
2023-03-25T21:20:12.919Z,98307.28
2023-03-25T21:22:43.879Z,98307.53
2023-03-25T21:25:14.763Z,98301.19
2023-03-25T21:27:45.452Z,98304.44
2023-03-25T21:30:14.089Z,98298.03
2023-03-25T21:32:41.919Z,98305.19
2023-03-25T21:35:10.462Z,98307.38
2023-03-25T21:37:39.272Z,98310.22
2023-03-25T21:40:11.738Z,98304.56
2023-03-25T21:42:41.725Z,98306.50
2023-03-25T21:45:13.980Z,98302.47
2023-03-25T21:47:43.347Z,98306.28
2023-03-25T21:50:14.692Z,98294.41
2023-03-25T21:52:47.085Z,98296.38
2023-03-25T21:55:19.650Z,98295.38
2023-03-25T21:57:51.932Z,98286.53
2023-03-25T22:00:20.310Z,98284.38
2023-03-25T22:02:48.439Z,98282.16
2023-03-25T22:05:17.146Z,98283.47
2023-03-25T22:07:45.129Z,98284.41
2023-03-25T22:10:12.781Z,98276.41
2023-03-25T22:12:40.506Z,98278.22
2023-03-25T22:15:10.126Z,98285.94
2023-03-25T22:17:37.672Z,98272.38
2023-03-25T22:20:06.168Z,98265.50
2023-03-25T22:22:33.633Z,98262.59
2023-03-25T22:25:01.250Z,98259.31
2023-03-25T22:27:28.730Z,98257.78
2023-03-25T22:29:56.297Z,98256.94
2023-03-25T22:32:27.282Z,98258.53
2023-03-25T22:34:55.187Z,98263.09
2023-03-25T22:37:22.566Z,98254.97
2023-03-25T22:39:50.548Z,98267.63
2023-03-25T22:42:18.062Z,98258.59
2023-03-25T22:44:46.499Z,98263.28
2023-03-25T22:47:13.951Z,98263.94
2023-03-25T22:49:41.383Z,98265.34
2023-03-25T22:52:08.869Z,98258.44
2023-03-25T22:54:36.408Z,98256.50
2023-03-25T22:57:04.231Z,98249.66
2023-03-25T22:59:31.969Z,98250.13
2023-03-25T23:01:59.466Z,98254.19
2023-03-25T23:04:27.012Z,98244.56
2023-03-25T23:07:06.849Z,98241.69
2023-03-25T23:09:42.112Z,98230.66
2023-03-25T23:12:20.776Z,98229.94
2023-03-25T23:14:56.915Z,98226.16
2023-03-25T23:17:26.658Z,98219.56
2023-03-25T23:19:54.326Z,98219.88
2023-03-25T23:22:22.367Z,98217.38
2023-03-25T23:24:49.883Z,98213.81
2023-03-25T23:27:17.708Z,98205.94
2023-03-25T23:29:45.211Z,98204.44
2023-03-25T23:32:12.691Z,98204.44
2023-03-25T23:34:40.432Z,98197.38
2023-03-25T23:37:09.340Z,98207.06
2023-03-25T23:39:40.590Z,98203.75
2023-03-25T23:42:09.053Z,98205.66
2023-03-25T23:44:36.453Z,98209.47
2023-03-25T23:47:04.893Z,98210.53
2023-03-25T23:49:34.031Z,98219.84
2023-03-25T23:52:01.547Z,98216.09
2023-03-25T23:54:29.119Z,98216.53
2023-03-25T23:56:56.623Z,98214.97
2023-03-25T23:59:24.094Z,98208.91
